This is the latest recevied weather packets stored in our database for station/object K7UHP. If no packets are shown the sender has not sent any weather packets the latest 10 day(s).
| Time | Temp. | Humidity | Pressure | Rain* | Wind** | Luminosity | Snow |
|---|---|---|---|---|---|---|---|
| 1777476147 | 8.89° C | 61% | 1020.9 hPa | 0 mm | - | - | - |
| 1777475547 | 7.78° C | 65% | 1020.9 hPa | 0 mm | - | - | - |
| 1777474947 | 7.78° C | 65% | 1020.9 hPa | 0 mm | - | - | - |
| 1777474317 | 7.22° C | 68% | 1020.8 hPa | 0 mm | - | - | - |
| 1777473717 | 7.22° C | 69% | 1020.7 hPa | 0 mm | - | - | - |
| 1777473117 | 7.22° C | 69% | 1020.6 hPa | 0 mm | - | - | - |
| 1777472516 | 7.22° C | 66% | 1020.5 hPa | 0 mm | - | - | - |
| 1777471916 | 7.22° C | 67% | 1020.4 hPa | 0 mm | - | - | - |
| 1777471315 | 7.22° C | 66% | 1020.5 hPa | 0 mm | - | - | - |
| 1777470714 | 6.67° C | 64% | 1020.4 hPa | 0 mm | - | - | - |
| 1777470113 | 6.11° C | 69% | 1020.3 hPa | 0 mm | - | - | - |
| 1777469512 | 5° C | 69% | 1020.4 hPa | 0 mm | - | - | - |
| 1777468911 | 5° C | 67% | 1020.4 hPa | 0 mm | - | - | - |
| 1777468310 | 4.44° C | 63% | 1020.3 hPa | 0 mm | - | - | - |
| 1777467709 | 5° C | 62% | 1020.2 hPa | 0 mm | - | - | - |
| 1777467109 | 5° C | 63% | 1020.1 hPa | 0 mm | - | - | - |
| 1777466508 | 5° C | 61% | 1020.2 hPa | 0 mm | - | - | - |
| 1777465907 | 5° C | 61% | 1020.1 hPa | 0 mm | - | - | - |
| 1777465306 | 6.11° C | 53% | 1020.1 hPa | 0 mm | - | - | - |
| 1777464705 | 5.56° C | 58% | 1020 hPa | 0 mm | - | - | - |
| 1777464105 | 5.56° C | 59% | 1020.1 hPa | 0 mm | - | - | - |
| 1777463504 | 4.44° C | 61% | 1020.2 hPa | 0 mm | - | - | - |
| 1777462903 | 4.44° C | 63% | 1020.1 hPa | 0 mm | - | - | - |
| 1777462303 | 4.44° C | 63% | 1020.1 hPa | 0 mm | - | - | - |
| 1777461702 | 4.44° C | 64% | 1020.1 hPa | 0 mm | - | - | - |
* Rain latest hour (hover to see other rain measurements)
** Current wind speed in m/s (hover to see current wind gust speed)